sensor_id;sensor_type;location;lat;lon;timestamp;P1;durP1;ratioP1;P2;durP2;ratioP2
21032;SDS011;10675;47.976;7.824;2024-03-08T00:00:07;13.83;;;6.20;;
21032;SDS011;10675;47.976;7.824;2024-03-08T00:02:38;12.63;;;6.67;;
21032;SDS011;10675;47.976;7.824;2024-03-08T00:05:04;9.77;;;6.27;;
21032;SDS011;10675;47.976;7.824;2024-03-08T00:07:31;12.30;;;6.03;;
21032;SDS011;10675;47.976;7.824;2024-03-08T00:09:57;11.73;;;6.00;;
21032;SDS011;10675;47.976;7.824;2024-03-08T00:12:22;10.97;;;5.87;;
21032;SDS011;10675;47.976;7.824;2024-03-08T00:14:48;9.97;;;5.03;;
21032;SDS011;10675;47.976;7.824;2024-03-08T00:17:14;10.63;;;5.23;;
21032;SDS011;10675;47.976;7.824;2024-03-08T00:19:40;9.87;;;5.63;;
21032;SDS011;10675;47.976;7.824;2024-03-08T00:22:06;8.83;;;4.50;;
21032;SDS011;10675;47.976;7.824;2024-03-08T00:24:32;11.10;;;5.50;;
21032;SDS011;10675;47.976;7.824;2024-03-08T00:26:58;12.57;;;5.77;;
21032;SDS011;10675;47.976;7.824;2024-03-08T00:29:24;14.17;;;6.10;;
21032;SDS011;10675;47.976;7.824;2024-03-08T00:31:49;13.73;;;5.60;;
21032;SDS011;10675;47.976;7.824;2024-03-08T00:34:15;10.80;;;5.53;;
21032;SDS011;10675;47.976;7.824;2024-03-08T00:36:40;10.67;;;5.87;;
21032;SDS011;10675;47.976;7.824;2024-03-08T00:39:06;12.40;;;5.70;;
21032;SDS011;10675;47.976;7.824;2024-03-08T00:41:32;10.90;;;5.00;;
21032;SDS011;10675;47.976;7.824;2024-03-08T00:43:58;11.00;;;6.17;;
21032;SDS011;10675;47.976;7.824;2024-03-08T00:46:23;10.17;;;5.17;;
21032;SDS011;10675;47.976;7.824;2024-03-08T00:48:49;11.43;;;5.10;;
21032;SDS011;10675;47.976;7.824;2024-03-08T00:51:14;11.63;;;5.07;;
21032;SDS011;10675;47.976;7.824;2024-03-08T00:53:41;11.40;;;6.53;;
21032;SDS011;10675;47.976;7.824;2024-03-08T00:56:09;10.00;;;5.73;;
21032;SDS011;10675;47.976;7.824;2024-03-08T00:58:38;9.80;;;5.40;;
21032;SDS011;10675;47.976;7.824;2024-03-08T01:01:04;9.13;;;5.07;;
21032;SDS011;10675;47.976;7.824;2024-03-08T01:03:30;12.63;;;5.73;;
21032;SDS011;10675;47.976;7.824;2024-03-08T01:05:57;11.90;;;6.00;;
21032;SDS011;10675;47.976;7.824;2024-03-08T01:08:26;11.40;;;5.80;;
21032;SDS011;10675;47.976;7.824;2024-03-08T01:10:52;13.53;;;6.57;;
21032;SDS011;10675;47.976;7.824;2024-03-08T01:13:18;13.27;;;6.23;;
21032;SDS011;10675;47.976;7.824;2024-03-08T01:15:44;11.07;;;5.37;;
21032;SDS011;10675;47.976;7.824;2024-03-08T01:18:10;13.03;;;6.23;;
21032;SDS011;10675;47.976;7.824;2024-03-08T01:20:35;11.47;;;5.50;;
21032;SDS011;10675;47.976;7.824;2024-03-08T01:23:01;16.87;;;7.03;;
21032;SDS011;10675;47.976;7.824;2024-03-08T01:25:26;10.90;;;5.60;;
21032;SDS011;10675;47.976;7.824;2024-03-08T01:27:52;10.87;;;5.57;;
21032;SDS011;10675;47.976;7.824;2024-03-08T01:30:18;12.13;;;5.93;;
21032;SDS011;10675;47.976;7.824;2024-03-08T01:32:44;14.70;;;6.00;;
21032;SDS011;10675;47.976;7.824;2024-03-08T01:35:10;10.93;;;5.27;;
21032;SDS011;10675;47.976;7.824;2024-03-08T01:37:36;12.00;;;5.77;;
21032;SDS011;10675;47.976;7.824;2024-03-08T01:40:02;11.67;;;5.80;;
21032;SDS011;10675;47.976;7.824;2024-03-08T01:42:28;9.07;;;4.63;;
21032;SDS011;10675;47.976;7.824;2024-03-08T01:44:54;11.70;;;6.07;;
21032;SDS011;10675;47.976;7.824;2024-03-08T01:47:19;12.40;;;6.17;;
21032;SDS011;10675;47.976;7.824;2024-03-08T01:49:48;10.57;;;5.63;;
21032;SDS011;10675;47.976;7.824;2024-03-08T01:52:17;12.67;;;6.07;;
21032;SDS011;10675;47.976;7.824;2024-03-08T01:54:45;11.60;;;5.67;;
21032;SDS011;10675;47.976;7.824;2024-03-08T01:57:11;13.17;;;6.53;;
21032;SDS011;10675;47.976;7.824;2024-03-08T01:59:37;11.83;;;6.13;;
21032;SDS011;10675;47.976;7.824;2024-03-08T02:02:03;13.30;;;6.17;;
21032;SDS011;10675;47.976;7.824;2024-03-08T02:04:30;13.40;;;5.67;;
21032;SDS011;10675;47.976;7.824;2024-03-08T02:06:56;10.10;;;5.70;;
21032;SDS011;10675;47.976;7.824;2024-03-08T02:09:23;13.03;;;5.33;;
21032;SDS011;10675;47.976;7.824;2024-03-08T02:11:50;12.37;;;5.93;;
21032;SDS011;10675;47.976;7.824;2024-03-08T02:14:16;12.53;;;6.10;;
21032;SDS011;10675;47.976;7.824;2024-03-08T02:16:43;17.77;;;6.50;;
21032;SDS011;10675;47.976;7.824;2024-03-08T02:19:09;12.10;;;5.80;;
21032;SDS011;10675;47.976;7.824;2024-03-08T02:21:34;13.80;;;6.10;;
21032;SDS011;10675;47.976;7.824;2024-03-08T02:24:01;9.33;;;5.57;;
21032;SDS011;10675;47.976;7.824;2024-03-08T02:26:26;10.33;;;5.30;;
21032;SDS011;10675;47.976;7.824;2024-03-08T02:28:52;11.30;;;6.37;;
21032;SDS011;10675;47.976;7.824;2024-03-08T02:31:18;10.53;;;5.50;;
21032;SDS011;10675;47.976;7.824;2024-03-08T02:33:43;12.73;;;6.13;;
21032;SDS011;10675;47.976;7.824;2024-03-08T02:36:09;11.83;;;5.70;;
21032;SDS011;10675;47.976;7.824;2024-03-08T02:38:34;13.33;;;5.87;;
21032;SDS011;10675;47.976;7.824;2024-03-08T02:41:00;10.10;;;5.77;;
21032;SDS011;10675;47.976;7.824;2024-03-08T02:43:25;11.60;;;5.03;;
21032;SDS011;10675;47.976;7.824;2024-03-08T02:45:51;10.57;;;5.53;;
21032;SDS011;10675;47.976;7.824;2024-03-08T02:48:19;10.50;;;6.03;;
21032;SDS011;10675;47.976;7.824;2024-03-08T02:50:46;13.13;;;6.00;;
21032;SDS011;10675;47.976;7.824;2024-03-08T02:53:12;12.77;;;6.47;;
21032;SDS011;10675;47.976;7.824;2024-03-08T02:55:38;12.20;;;5.57;;
21032;SDS011;10675;47.976;7.824;2024-03-08T02:58:06;15.30;;;6.07;;
21032;SDS011;10675;47.976;7.824;2024-03-08T03:00:34;13.27;;;5.60;;
21032;SDS011;10675;47.976;7.824;2024-03-08T03:03:00;12.57;;;6.13;;
21032;SDS011;10675;47.976;7.824;2024-03-08T03:05:28;11.90;;;5.63;;
21032;SDS011;10675;47.976;7.824;2024-03-08T03:07:54;12.63;;;6.10;;
21032;SDS011;10675;47.976;7.824;2024-03-08T03:10:20;13.77;;;6.17;;
21032;SDS011;10675;47.976;7.824;2024-03-08T03:12:46;10.00;;;5.80;;
21032;SDS011;10675;47.976;7.824;2024-03-08T03:15:13;11.70;;;6.33;;
21032;SDS011;10675;47.976;7.824;2024-03-08T03:17:39;9.43;;;5.20;;
21032;SDS011;10675;47.976;7.824;2024-03-08T03:20:07;13.93;;;6.23;;
21032;SDS011;10675;47.976;7.824;2024-03-08T03:22:38;9.83;;;5.00;;
21032;SDS011;10675;47.976;7.824;2024-03-08T03:25:06;11.97;;;6.33;;
21032;SDS011;10675;47.976;7.824;2024-03-08T03:27:34;14.23;;;5.80;;
21032;SDS011;10675;47.976;7.824;2024-03-08T03:30:00;14.50;;;6.07;;
21032;SDS011;10675;47.976;7.824;2024-03-08T03:32:45;11.50;;;6.20;;
21032;SDS011;10675;47.976;7.824;2024-03-08T03:35:12;12.13;;;5.50;;
21032;SDS011;10675;47.976;7.824;2024-03-08T03:37:38;11.87;;;6.00;;
21032;SDS011;10675;47.976;7.824;2024-03-08T03:40:05;17.60;;;6.37;;
21032;SDS011;10675;47.976;7.824;2024-03-08T03:42:31;13.10;;;6.13;;
21032;SDS011;10675;47.976;7.824;2024-03-08T03:44:56;13.53;;;5.80;;
21032;SDS011;10675;47.976;7.824;2024-03-08T03:47:22;11.00;;;5.53;;
21032;SDS011;10675;47.976;7.824;2024-03-08T03:49:48;14.87;;;4.90;;
21032;SDS011;10675;47.976;7.824;2024-03-08T03:52:13;10.03;;;5.03;;
21032;SDS011;10675;47.976;7.824;2024-03-08T03:54:40;10.17;;;5.23;;
21032;SDS011;10675;47.976;7.824;2024-03-08T03:57:06;9.53;;;5.20;;
21032;SDS011;10675;47.976;7.824;2024-03-08T03:59:32;10.63;;;5.43;;
21032;SDS011;10675;47.976;7.824;2024-03-08T04:01:58;11.40;;;5.73;;
21032;SDS011;10675;47.976;7.824;2024-03-08T04:04:24;11.23;;;5.30;;
21032;SDS011;10675;47.976;7.824;2024-03-08T04:06:49;15.73;;;6.10;;
21032;SDS011;10675;47.976;7.824;2024-03-08T04:09:16;9.73;;;4.77;;
21032;SDS011;10675;47.976;7.824;2024-03-08T04:11:44;12.63;;;5.67;;
21032;SDS011;10675;47.976;7.824;2024-03-08T04:14:09;10.47;;;4.83;;
21032;SDS011;10675;47.976;7.824;2024-03-08T04:16:35;13.33;;;6.63;;
21032;SDS011;10675;47.976;7.824;2024-03-08T04:19:01;11.87;;;5.63;;
21032;SDS011;10675;47.976;7.824;2024-03-08T04:21:29;11.63;;;5.47;;
21032;SDS011;10675;47.976;7.824;2024-03-08T04:23:55;10.13;;;5.30;;
21032;SDS011;10675;47.976;7.824;2024-03-08T04:26:21;9.87;;;5.33;;
21032;SDS011;10675;47.976;7.824;2024-03-08T04:28:47;11.77;;;5.20;;
21032;SDS011;10675;47.976;7.824;2024-03-08T04:31:12;9.07;;;5.40;;
21032;SDS011;10675;47.976;7.824;2024-03-08T04:33:38;11.87;;;5.43;;
21032;SDS011;10675;47.976;7.824;2024-03-08T04:36:03;13.30;;;5.73;;
21032;SDS011;10675;47.976;7.824;2024-03-08T04:38:29;11.90;;;6.20;;
21032;SDS011;10675;47.976;7.824;2024-03-08T04:40:55;10.90;;;5.13;;
21032;SDS011;10675;47.976;7.824;2024-03-08T04:43:22;12.50;;;5.67;;
21032;SDS011;10675;47.976;7.824;2024-03-08T04:45:50;10.03;;;5.77;;
21032;SDS011;10675;47.976;7.824;2024-03-08T04:48:16;9.17;;;5.10;;
21032;SDS011;10675;47.976;7.824;2024-03-08T04:50:41;11.83;;;6.23;;
21032;SDS011;10675;47.976;7.824;2024-03-08T04:53:07;10.93;;;5.37;;
21032;SDS011;10675;47.976;7.824;2024-03-08T04:55:33;13.23;;;5.50;;
21032;SDS011;10675;47.976;7.824;2024-03-08T04:57:59;15.10;;;6.17;;
21032;SDS011;10675;47.976;7.824;2024-03-08T05:00:24;10.70;;;5.83;;
21032;SDS011;10675;47.976;7.824;2024-03-08T05:02:50;13.67;;;5.67;;
21032;SDS011;10675;47.976;7.824;2024-03-08T05:05:18;11.07;;;5.50;;
21032;SDS011;10675;47.976;7.824;2024-03-08T05:07:44;12.50;;;6.97;;
21032;SDS011;10675;47.976;7.824;2024-03-08T05:10:10;14.70;;;5.10;;
21032;SDS011;10675;47.976;7.824;2024-03-08T05:12:36;10.97;;;5.40;;
21032;SDS011;10675;47.976;7.824;2024-03-08T05:15:03;11.00;;;5.50;;
21032;SDS011;10675;47.976;7.824;2024-03-08T05:17:30;12.87;;;6.57;;
21032;SDS011;10675;47.976;7.824;2024-03-08T05:19:55;13.77;;;6.10;;
21032;SDS011;10675;47.976;7.824;2024-03-08T05:22:21;13.53;;;5.50;;
21032;SDS011;10675;47.976;7.824;2024-03-08T05:24:46;14.63;;;6.13;;
21032;SDS011;10675;47.976;7.824;2024-03-08T05:27:12;12.33;;;5.27;;
21032;SDS011;10675;47.976;7.824;2024-03-08T05:29:38;13.37;;;6.13;;
21032;SDS011;10675;47.976;7.824;2024-03-08T05:32:03;13.03;;;5.97;;
21032;SDS011;10675;47.976;7.824;2024-03-08T05:34:29;15.70;;;6.53;;
21032;SDS011;10675;47.976;7.824;2024-03-08T05:36:55;11.67;;;6.03;;
21032;SDS011;10675;47.976;7.824;2024-03-08T05:39:20;14.13;;;6.33;;
21032;SDS011;10675;47.976;7.824;2024-03-08T05:41:46;10.87;;;5.77;;
21032;SDS011;10675;47.976;7.824;2024-03-08T05:44:12;13.30;;;5.67;;
21032;SDS011;10675;47.976;7.824;2024-03-08T05:46:38;10.67;;;5.97;;
21032;SDS011;10675;47.976;7.824;2024-03-08T05:49:04;12.83;;;6.17;;
21032;SDS011;10675;47.976;7.824;2024-03-08T05:51:37;11.17;;;5.93;;
21032;SDS011;10675;47.976;7.824;2024-03-08T05:54:04;13.07;;;6.27;;
21032;SDS011;10675;47.976;7.824;2024-03-08T05:56:34;12.33;;;5.80;;
21032;SDS011;10675;47.976;7.824;2024-03-08T05:59:00;11.37;;;5.77;;
21032;SDS011;10675;47.976;7.824;2024-03-08T06:01:26;11.57;;;5.97;;
21032;SDS011;10675;47.976;7.824;2024-03-08T06:03:53;12.00;;;5.90;;
21032;SDS011;10675;47.976;7.824;2024-03-08T06:06:20;11.43;;;6.07;;
21032;SDS011;10675;47.976;7.824;2024-03-08T06:08:47;10.93;;;6.10;;
21032;SDS011;10675;47.976;7.824;2024-03-08T06:11:14;10.47;;;5.53;;
21032;SDS011;10675;47.976;7.824;2024-03-08T06:13:42;18.37;;;7.27;;
21032;SDS011;10675;47.976;7.824;2024-03-08T06:16:07;14.83;;;6.80;;
21032;SDS011;10675;47.976;7.824;2024-03-08T06:18:34;16.23;;;7.33;;
21032;SDS011;10675;47.976;7.824;2024-03-08T06:21:02;14.77;;;6.90;;
21032;SDS011;10675;47.976;7.824;2024-03-08T06:23:33;13.60;;;6.70;;
21032;SDS011;10675;47.976;7.824;2024-03-08T06:26:03;11.50;;;6.33;;
21032;SDS011;10675;47.976;7.824;2024-03-08T06:28:29;17.27;;;6.83;;
21032;SDS011;10675;47.976;7.824;2024-03-08T06:30:55;12.77;;;6.17;;
21032;SDS011;10675;47.976;7.824;2024-03-08T06:33:21;11.20;;;6.47;;
21032;SDS011;10675;47.976;7.824;2024-03-08T06:35:46;10.57;;;6.57;;
21032;SDS011;10675;47.976;7.824;2024-03-08T06:38:12;16.47;;;6.53;;
21032;SDS011;10675;47.976;7.824;2024-03-08T06:40:37;14.33;;;7.43;;
21032;SDS011;10675;47.976;7.824;2024-03-08T06:43:03;25.17;;;8.77;;
21032;SDS011;10675;47.976;7.824;2024-03-08T06:45:31;17.20;;;8.43;;
21032;SDS011;10675;47.976;7.824;2024-03-08T06:47:57;16.60;;;8.13;;
21032;SDS011;10675;47.976;7.824;2024-03-08T06:50:23;18.40;;;8.30;;
21032;SDS011;10675;47.976;7.824;2024-03-08T06:52:48;17.30;;;9.10;;
21032;SDS011;10675;47.976;7.824;2024-03-08T06:55:18;17.20;;;8.00;;
21032;SDS011;10675;47.976;7.824;2024-03-08T06:57:44;17.83;;;8.20;;
21032;SDS011;10675;47.976;7.824;2024-03-08T07:00:10;17.40;;;7.77;;
21032;SDS011;10675;47.976;7.824;2024-03-08T07:02:38;17.93;;;8.13;;
21032;SDS011;10675;47.976;7.824;2024-03-08T07:05:07;21.80;;;8.40;;
21032;SDS011;10675;47.976;7.824;2024-03-08T07:07:35;19.40;;;7.30;;
21032;SDS011;10675;47.976;7.824;2024-03-08T07:10:01;17.67;;;8.60;;
21032;SDS011;10675;47.976;7.824;2024-03-08T07:12:26;22.00;;;9.90;;
21032;SDS011;10675;47.976;7.824;2024-03-08T07:14:52;22.43;;;8.13;;
21032;SDS011;10675;47.976;7.824;2024-03-08T07:17:18;18.07;;;9.13;;
21032;SDS011;10675;47.976;7.824;2024-03-08T07:19:43;19.50;;;8.93;;
21032;SDS011;10675;47.976;7.824;2024-03-08T07:22:10;18.03;;;8.50;;
21032;SDS011;10675;47.976;7.824;2024-03-08T07:24:36;18.13;;;8.63;;
21032;SDS011;10675;47.976;7.824;2024-03-08T07:27:01;17.73;;;8.47;;
21032;SDS011;10675;47.976;7.824;2024-03-08T07:29:30;16.70;;;8.57;;
21032;SDS011;10675;47.976;7.824;2024-03-08T07:31:56;17.27;;;8.43;;
21032;SDS011;10675;47.976;7.824;2024-03-08T07:34:44;13.47;;;6.73;;
21032;SDS011;10675;47.976;7.824;2024-03-08T07:37:09;12.37;;;6.30;;
21032;SDS011;10675;47.976;7.824;2024-03-08T07:39:38;10.53;;;5.97;;
21032;SDS011;10675;47.976;7.824;2024-03-08T07:42:04;14.97;;;6.77;;
21032;SDS011;10675;47.976;7.824;2024-03-08T07:44:30;14.20;;;7.50;;
21032;SDS011;10675;47.976;7.824;2024-03-08T07:46:56;15.43;;;7.40;;
21032;SDS011;10675;47.976;7.824;2024-03-08T07:49:22;15.73;;;7.20;;
21032;SDS011;10675;47.976;7.824;2024-03-08T07:51:47;16.00;;;7.67;;
21032;SDS011;10675;47.976;7.824;2024-03-08T07:54:14;14.90;;;8.37;;
21032;SDS011;10675;47.976;7.824;2024-03-08T07:56:39;14.10;;;8.67;;
21032;SDS011;10675;47.976;7.824;2024-03-08T07:59:05;18.53;;;7.93;;
21032;SDS011;10675;47.976;7.824;2024-03-08T08:01:31;15.60;;;8.20;;
21032;SDS011;10675;47.976;7.824;2024-03-08T08:03:58;13.63;;;7.63;;
21032;SDS011;10675;47.976;7.824;2024-03-08T08:06:24;14.07;;;7.77;;
21032;SDS011;10675;47.976;7.824;2024-03-08T08:08:50;17.10;;;7.87;;
21032;SDS011;10675;47.976;7.824;2024-03-08T08:11:16;15.37;;;7.87;;
21032;SDS011;10675;47.976;7.824;2024-03-08T08:13:41;16.10;;;7.83;;
21032;SDS011;10675;47.976;7.824;2024-03-08T08:16:08;14.73;;;7.60;;
21032;SDS011;10675;47.976;7.824;2024-03-08T08:18:34;14.40;;;7.77;;
21032;SDS011;10675;47.976;7.824;2024-03-08T08:21:00;15.03;;;6.73;;
21032;SDS011;10675;47.976;7.824;2024-03-08T08:23:26;13.53;;;7.87;;
21032;SDS011;10675;47.976;7.824;2024-03-08T08:25:51;12.17;;;6.63;;
21032;SDS011;10675;47.976;7.824;2024-03-08T08:28:17;13.17;;;7.33;;
21032;SDS011;10675;47.976;7.824;2024-03-08T08:30:46;16.17;;;7.50;;
21032;SDS011;10675;47.976;7.824;2024-03-08T08:33:13;15.53;;;7.83;;
21032;SDS011;10675;47.976;7.824;2024-03-08T08:35:40;15.47;;;8.20;;
21032;SDS011;10675;47.976;7.824;2024-03-08T08:38:05;17.73;;;8.57;;
21032;SDS011;10675;47.976;7.824;2024-03-08T08:40:32;14.83;;;8.07;;
21032;SDS011;10675;47.976;7.824;2024-03-08T08:42:58;14.80;;;7.30;;
21032;SDS011;10675;47.976;7.824;2024-03-08T08:45:24;11.57;;;7.10;;
21032;SDS011;10675;47.976;7.824;2024-03-08T08:47:50;15.97;;;7.97;;
21032;SDS011;10675;47.976;7.824;2024-03-08T08:50:16;13.93;;;7.83;;
21032;SDS011;10675;47.976;7.824;2024-03-08T08:52:47;15.53;;;8.40;;
21032;SDS011;10675;47.976;7.824;2024-03-08T08:55:14;15.20;;;8.23;;
21032;SDS011;10675;47.976;7.824;2024-03-08T08:57:40;16.20;;;8.53;;
21032;SDS011;10675;47.976;7.824;2024-03-08T09:00:06;13.37;;;7.97;;
21032;SDS011;10675;47.976;7.824;2024-03-08T09:02:32;15.90;;;8.27;;
21032;SDS011;10675;47.976;7.824;2024-03-08T09:05:02;15.80;;;7.60;;
21032;SDS011;10675;47.976;7.824;2024-03-08T09:07:28;15.67;;;7.77;;
21032;SDS011;10675;47.976;7.824;2024-03-08T09:09:53;19.37;;;9.00;;
21032;SDS011;10675;47.976;7.824;2024-03-08T09:12:23;14.97;;;8.23;;
21032;SDS011;10675;47.976;7.824;2024-03-08T09:14:49;16.30;;;8.60;;
21032;SDS011;10675;47.976;7.824;2024-03-08T09:17:14;17.60;;;8.63;;
21032;SDS011;10675;47.976;7.824;2024-03-08T09:19:45;15.67;;;8.27;;
21032;SDS011;10675;47.976;7.824;2024-03-08T09:22:12;19.07;;;9.50;;
21032;SDS011;10675;47.976;7.824;2024-03-08T09:24:38;22.13;;;11.17;;
21032;SDS011;10675;47.976;7.824;2024-03-08T09:27:03;18.87;;;9.40;;
21032;SDS011;10675;47.976;7.824;2024-03-08T09:29:29;16.40;;;9.40;;
21032;SDS011;10675;47.976;7.824;2024-03-08T09:31:55;16.97;;;9.63;;
21032;SDS011;10675;47.976;7.824;2024-03-08T09:34:20;16.13;;;8.90;;
21032;SDS011;10675;47.976;7.824;2024-03-08T09:36:46;17.53;;;8.60;;
21032;SDS011;10675;47.976;7.824;2024-03-08T09:39:12;17.70;;;8.37;;
21032;SDS011;10675;47.976;7.824;2024-03-08T09:41:42;19.20;;;8.43;;
21032;SDS011;10675;47.976;7.824;2024-03-08T09:44:08;16.90;;;8.40;;
21032;SDS011;10675;47.976;7.824;2024-03-08T09:46:34;15.40;;;8.00;;
21032;SDS011;10675;47.976;7.824;2024-03-08T09:49:00;15.20;;;7.63;;
21032;SDS011;10675;47.976;7.824;2024-03-08T09:51:29;16.87;;;8.97;;
21032;SDS011;10675;47.976;7.824;2024-03-08T09:53:59;13.07;;;7.70;;
21032;SDS011;10675;47.976;7.824;2024-03-08T09:56:25;12.87;;;7.43;;
21032;SDS011;10675;47.976;7.824;2024-03-08T09:58:52;13.83;;;7.30;;
21032;SDS011;10675;47.976;7.824;2024-03-08T10:01:36;13.93;;;7.77;;
21032;SDS011;10675;47.976;7.824;2024-03-08T10:04:04;11.53;;;7.30;;
21032;SDS011;10675;47.976;7.824;2024-03-08T10:06:30;12.67;;;7.40;;
21032;SDS011;10675;47.976;7.824;2024-03-08T10:08:56;12.67;;;7.93;;
21032;SDS011;10675;47.976;7.824;2024-03-08T10:11:22;13.03;;;7.17;;
21032;SDS011;10675;47.976;7.824;2024-03-08T10:13:49;11.23;;;7.00;;
21032;SDS011;10675;47.976;7.824;2024-03-08T10:16:15;11.53;;;6.73;;
21032;SDS011;10675;47.976;7.824;2024-03-08T10:18:44;11.67;;;7.17;;
21032;SDS011;10675;47.976;7.824;2024-03-08T10:21:10;12.23;;;7.10;;
21032;SDS011;10675;47.976;7.824;2024-03-08T10:23:36;12.37;;;6.63;;
21032;SDS011;10675;47.976;7.824;2024-03-08T10:26:17;12.23;;;7.70;;
21032;SDS011;10675;47.976;7.824;2024-03-08T10:28:46;12.33;;;7.27;;
21032;SDS011;10675;47.976;7.824;2024-03-08T10:31:15;10.37;;;6.60;;
21032;SDS011;10675;47.976;7.824;2024-03-08T10:33:42;11.93;;;6.63;;
21032;SDS011;10675;47.976;7.824;2024-03-08T10:36:09;11.83;;;7.03;;
21032;SDS011;10675;47.976;7.824;2024-03-08T10:38:38;13.80;;;7.67;;
21032;SDS011;10675;47.976;7.824;2024-03-08T10:41:05;12.43;;;6.97;;
21032;SDS011;10675;47.976;7.824;2024-03-08T10:43:33;11.80;;;6.80;;
21032;SDS011;10675;47.976;7.824;2024-03-08T10:49:05;13.00;;;7.73;;
21032;SDS011;10675;47.976;7.824;2024-03-08T10:51:33;12.03;;;6.67;;
21032;SDS011;10675;47.976;7.824;2024-03-08T10:53:59;11.27;;;6.07;;
21032;SDS011;10675;47.976;7.824;2024-03-08T10:56:28;13.97;;;7.47;;
21032;SDS011;10675;47.976;7.824;2024-03-08T10:58:54;13.83;;;7.60;;
21032;SDS011;10675;47.976;7.824;2024-03-08T11:01:20;14.47;;;8.03;;
21032;SDS011;10675;47.976;7.824;2024-03-08T11:03:47;12.50;;;7.40;;
21032;SDS011;10675;47.976;7.824;2024-03-08T11:06:16;13.30;;;7.27;;
21032;SDS011;10675;47.976;7.824;2024-03-08T11:08:44;11.30;;;6.13;;
21032;SDS011;10675;47.976;7.824;2024-03-08T11:14:00;12.13;;;6.67;;
21032;SDS011;10675;47.976;7.824;2024-03-08T11:19:01;13.80;;;8.00;;
21032;SDS011;10675;47.976;7.824;2024-03-08T11:21:35;11.83;;;7.57;;
21032;SDS011;10675;47.976;7.824;2024-03-08T11:24:14;13.50;;;7.63;;
21032;SDS011;10675;47.976;7.824;2024-03-08T11:26:41;12.67;;;7.70;;
21032;SDS011;10675;47.976;7.824;2024-03-08T11:34:43;17.83;;;9.10;;
21032;SDS011;10675;47.976;7.824;2024-03-08T11:37:14;14.17;;;7.63;;
21032;SDS011;10675;47.976;7.824;2024-03-08T11:39:46;15.03;;;7.93;;
21032;SDS011;10675;47.976;7.824;2024-03-08T11:42:16;19.87;;;9.53;;
21032;SDS011;10675;47.976;7.824;2024-03-08T11:44:42;16.40;;;9.13;;
21032;SDS011;10675;47.976;7.824;2024-03-08T11:47:12;13.90;;;8.33;;
21032;SDS011;10675;47.976;7.824;2024-03-08T11:49:39;17.47;;;9.10;;
21032;SDS011;10675;47.976;7.824;2024-03-08T11:52:10;12.77;;;7.30;;
21032;SDS011;10675;47.976;7.824;2024-03-08T11:54:38;17.23;;;9.07;;
21032;SDS011;10675;47.976;7.824;2024-03-08T11:57:04;15.53;;;8.63;;
21032;SDS011;10675;47.976;7.824;2024-03-08T11:59:29;13.60;;;8.27;;
21032;SDS011;10675;47.976;7.824;2024-03-08T12:02:02;17.03;;;8.57;;
21032;SDS011;10675;47.976;7.824;2024-03-08T12:04:29;14.17;;;7.87;;
21032;SDS011;10675;47.976;7.824;2024-03-08T12:06:56;15.13;;;8.13;;
21032;SDS011;10675;47.976;7.824;2024-03-08T12:09:24;13.10;;;7.40;;
21032;SDS011;10675;47.976;7.824;2024-03-08T12:11:50;14.33;;;7.97;;
21032;SDS011;10675;47.976;7.824;2024-03-08T12:14:16;14.70;;;7.30;;
21032;SDS011;10675;47.976;7.824;2024-03-08T12:16:43;9.90;;;6.30;;
21032;SDS011;10675;47.976;7.824;2024-03-08T12:19:09;10.77;;;6.07;;
21032;SDS011;10675;47.976;7.824;2024-03-08T12:21:35;10.70;;;6.23;;
21032;SDS011;10675;47.976;7.824;2024-03-08T12:24:02;10.03;;;6.67;;
21032;SDS011;10675;47.976;7.824;2024-03-08T12:26:35;10.40;;;6.13;;
21032;SDS011;10675;47.976;7.824;2024-03-08T12:29:14;13.70;;;7.27;;
21032;SDS011;10675;47.976;7.824;2024-03-08T12:31:42;13.37;;;7.13;;
21032;SDS011;10675;47.976;7.824;2024-03-08T12:34:08;9.97;;;6.00;;
21032;SDS011;10675;47.976;7.824;2024-03-08T12:36:34;11.67;;;6.77;;
21032;SDS011;10675;47.976;7.824;2024-03-08T12:39:04;12.27;;;7.33;;
21032;SDS011;10675;47.976;7.824;2024-03-08T12:41:32;12.33;;;7.23;;
21032;SDS011;10675;47.976;7.824;2024-03-08T12:44:04;12.00;;;7.30;;
21032;SDS011;10675;47.976;7.824;2024-03-08T12:46:32;11.53;;;6.93;;
21032;SDS011;10675;47.976;7.824;2024-03-08T12:48:59;12.30;;;7.73;;
21032;SDS011;10675;47.976;7.824;2024-03-08T12:51:25;14.70;;;7.30;;
21032;SDS011;10675;47.976;7.824;2024-03-08T12:53:50;13.07;;;7.53;;
21032;SDS011;10675;47.976;7.824;2024-03-08T12:56:28;14.23;;;8.20;;
21032;SDS011;10675;47.976;7.824;2024-03-08T12:58:55;13.37;;;7.97;;
21032;SDS011;10675;47.976;7.824;2024-03-08T13:01:21;13.03;;;7.20;;
21032;SDS011;10675;47.976;7.824;2024-03-08T13:03:47;14.77;;;7.90;;
21032;SDS011;10675;47.976;7.824;2024-03-08T13:06:14;12.33;;;7.43;;
21032;SDS011;10675;47.976;7.824;2024-03-08T13:08:40;14.63;;;8.67;;
21032;SDS011;10675;47.976;7.824;2024-03-08T13:11:09;17.83;;;9.67;;
21032;SDS011;10675;47.976;7.824;2024-03-08T13:13:39;15.20;;;8.70;;
21032;SDS011;10675;47.976;7.824;2024-03-08T13:16:05;17.13;;;8.73;;
21032;SDS011;10675;47.976;7.824;2024-03-08T13:18:35;13.50;;;8.57;;
21032;SDS011;10675;47.976;7.824;2024-03-08T13:21:00;14.73;;;9.60;;
21032;SDS011;10675;47.976;7.824;2024-03-08T13:23:36;14.27;;;8.47;;
21032;SDS011;10675;47.976;7.824;2024-03-08T13:26:12;12.37;;;8.90;;
21032;SDS011;10675;47.976;7.824;2024-03-08T13:28:40;13.50;;;8.67;;
21032;SDS011;10675;47.976;7.824;2024-03-08T13:31:08;15.67;;;8.47;;
21032;SDS011;10675;47.976;7.824;2024-03-08T13:33:35;15.13;;;8.67;;
21032;SDS011;10675;47.976;7.824;2024-03-08T13:36:08;14.00;;;8.63;;
21032;SDS011;10675;47.976;7.824;2024-03-08T13:38:42;15.53;;;8.03;;
21032;SDS011;10675;47.976;7.824;2024-03-08T13:41:09;15.30;;;8.33;;
21032;SDS011;10675;47.976;7.824;2024-03-08T13:43:36;12.73;;;8.00;;
21032;SDS011;10675;47.976;7.824;2024-03-08T13:46:02;12.53;;;7.90;;
21032;SDS011;10675;47.976;7.824;2024-03-08T13:48:28;12.63;;;7.10;;
21032;SDS011;10675;47.976;7.824;2024-03-08T13:50:54;13.53;;;8.53;;
21032;SDS011;10675;47.976;7.824;2024-03-08T13:53:22;13.73;;;8.43;;
21032;SDS011;10675;47.976;7.824;2024-03-08T13:55:48;11.33;;;8.47;;
21032;SDS011;10675;47.976;7.824;2024-03-08T13:58:15;11.93;;;7.47;;
21032;SDS011;10675;47.976;7.824;2024-03-08T14:00:40;12.40;;;7.90;;
21032;SDS011;10675;47.976;7.824;2024-03-08T14:03:08;12.97;;;7.67;;
21032;SDS011;10675;47.976;7.824;2024-03-08T14:05:35;13.00;;;7.97;;
21032;SDS011;10675;47.976;7.824;2024-03-08T14:08:04;12.13;;;8.13;;
21032;SDS011;10675;47.976;7.824;2024-03-08T14:10:32;10.90;;;7.00;;
21032;SDS011;10675;47.976;7.824;2024-03-08T14:12:59;13.20;;;8.23;;
21032;SDS011;10675;47.976;7.824;2024-03-08T14:15:25;11.77;;;7.07;;
21032;SDS011;10675;47.976;7.824;2024-03-08T14:17:54;12.03;;;7.30;;
21032;SDS011;10675;47.976;7.824;2024-03-08T14:20:20;12.10;;;8.17;;
21032;SDS011;10675;47.976;7.824;2024-03-08T14:22:50;13.20;;;7.43;;
21032;SDS011;10675;47.976;7.824;2024-03-08T14:25:19;12.53;;;7.53;;
21032;SDS011;10675;47.976;7.824;2024-03-08T14:27:48;10.77;;;7.50;;
21032;SDS011;10675;47.976;7.824;2024-03-08T14:30:14;10.67;;;7.60;;
21032;SDS011;10675;47.976;7.824;2024-03-08T14:32:56;12.17;;;8.00;;
21032;SDS011;10675;47.976;7.824;2024-03-08T14:35:26;12.43;;;7.47;;
21032;SDS011;10675;47.976;7.824;2024-03-08T14:37:52;14.33;;;7.27;;
21032;SDS011;10675;47.976;7.824;2024-03-08T14:40:18;11.93;;;7.37;;
21032;SDS011;10675;47.976;7.824;2024-03-08T14:42:47;12.13;;;7.77;;
21032;SDS011;10675;47.976;7.824;2024-03-08T14:45:14;12.80;;;8.03;;
21032;SDS011;10675;47.976;7.824;2024-03-08T14:47:40;11.73;;;7.00;;